Arkansas City, Kansas
Current Conditions -  °F | °C
As of 3:54 AM on Sunday 26 Oct 2014 (Local Time) from KWLD Reporting Station
Clear Clear  
Wind Chill: 62°   Ceiling: Unl
Heat Index: 62°   Visibility: 10mi
Dew Point: 57°   Wind: 7mph
Humidity: 84%   Direction: 160°SSE
Pressure: 29.93"   Gusts: NA
Location:  37.06°N, 97.04°W
Report Text: KWLD 260854Z AUTO 16006KT 10SM CLR 17/14 A2993 RMK AO2 SLP124 T01670139 58007
Loading
Personal Weather Stations






























Interactive Weather Map
Tropical Storm Tracking
New forecast layout! Learn more

10-Day Weather Forecast

Advertisements
Track Severe Weather on mobile